createdAt,value
2022-11-27T00:00:44.716Z,23.08
2022-11-27T00:03:12.086Z,21.23
2022-11-27T00:05:39.280Z,22.30
2022-11-27T00:08:06.374Z,22.50
2022-11-27T00:10:33.511Z,27.50
2022-11-27T00:13:00.607Z,28.73
2022-11-27T00:15:27.704Z,31.33
2022-11-27T00:17:54.881Z,29.10
2022-11-27T00:20:25.039Z,26.23
2022-11-27T00:22:54.457Z,23.20
2022-11-27T00:25:21.609Z,23.37
2022-11-27T00:27:48.717Z,24.13
2022-11-27T00:30:15.871Z,30.30
2022-11-27T00:32:42.976Z,32.67
2022-11-27T00:35:10.190Z,38.85
2022-11-27T00:37:37.318Z,47.53
2022-11-27T00:40:04.586Z,50.13
2022-11-27T00:42:31.697Z,49.70
2022-11-27T00:44:58.787Z,51.35
2022-11-27T00:47:25.923Z,48.35
2022-11-27T00:49:53.018Z,47.58
2022-11-27T00:52:20.269Z,45.40
2022-11-27T00:54:47.395Z,45.17
2022-11-27T00:57:19.745Z,45.10
2022-11-27T00:59:46.910Z,44.92
2022-11-27T01:02:14.066Z,44.27
2022-11-27T01:04:41.589Z,43.20
2022-11-27T01:07:08.895Z,41.72
2022-11-27T01:09:36.001Z,42.70
2022-11-27T01:12:03.117Z,46.00
2022-11-27T01:14:30.250Z,49.97
2022-11-27T01:16:57.395Z,46.22
2022-11-27T01:19:24.488Z,44.23
2022-11-27T01:21:51.616Z,39.30
2022-11-27T01:24:18.840Z,39.95
2022-11-27T01:26:46.064Z,38.30
2022-11-27T01:29:13.187Z,37.73
2022-11-27T01:31:40.352Z,35.30
2022-11-27T01:34:08.469Z,37.35
2022-11-27T01:36:35.596Z,38.67
2022-11-27T01:39:02.756Z,33.75
2022-11-27T01:41:31.113Z,32.87
2022-11-27T01:44:02.040Z,33.70
2022-11-27T01:46:44.810Z,32.00
2022-11-27T01:49:11.986Z,28.33
2022-11-27T01:51:40.785Z,29.03
2022-11-27T01:54:08.265Z,28.67
2022-11-27T01:56:35.392Z,35.88
2022-11-27T01:59:02.528Z,34.60
2022-11-27T02:01:29.668Z,32.38
2022-11-27T02:03:58.644Z,36.20
2022-11-27T02:06:25.877Z,34.33
2022-11-27T02:08:52.970Z,33.27
2022-11-27T02:11:23.222Z,33.53
2022-11-27T02:13:55.785Z,31.40
2022-11-27T02:16:25.917Z,34.53
2022-11-27T02:18:56.067Z,33.00
2022-11-27T02:21:33.906Z,35.87
2022-11-27T02:24:19.735Z,32.13
2022-11-27T02:26:49.866Z,33.73
2022-11-27T02:29:18.404Z,36.20
2022-11-27T02:31:48.691Z,36.60
2022-11-27T02:34:17.982Z,33.10
2022-11-27T02:36:47.556Z,31.97
2022-11-27T02:39:15.574Z,33.23
2022-11-27T02:41:45.064Z,34.42
2022-11-27T02:44:12.142Z,38.33
2022-11-27T02:46:39.315Z,36.57
2022-11-27T02:49:07.530Z,33.30
2022-11-27T02:51:39.108Z,29.13
2022-11-27T02:54:07.265Z,29.65
2022-11-27T02:56:34.667Z,28.80
2022-11-27T02:59:02.928Z,28.17
2022-11-27T03:01:30.785Z,24.70
2022-11-27T03:03:57.939Z,23.15
2022-11-27T03:06:26.547Z,21.40
2022-11-27T03:08:58.273Z,21.02
2022-11-27T03:11:25.598Z,21.70
2022-11-27T03:13:55.851Z,21.50
2022-11-27T03:16:26.109Z,19.95
2022-11-27T03:19:05.666Z,20.23
2022-11-27T03:21:38.086Z,21.27
2022-11-27T03:24:05.499Z,24.17
2022-11-27T03:26:32.593Z,24.67
2022-11-27T03:28:59.757Z,23.83
2022-11-27T03:31:27.164Z,23.20
2022-11-27T03:33:54.290Z,21.45
2022-11-27T03:36:21.737Z,20.50
2022-11-27T03:38:49.338Z,20.87
2022-11-27T03:41:22.345Z,21.88
2022-11-27T03:44:09.909Z,23.55
2022-11-27T03:46:40.772Z,26.53
2022-11-27T03:49:21.791Z,18.70
2022-11-27T03:52:07.703Z,18.40
2022-11-27T03:54:34.809Z,23.88
2022-11-27T03:57:03.438Z,18.73
2022-11-27T03:59:31.270Z,17.35
2022-11-27T04:01:58.434Z,16.50
2022-11-27T04:04:25.652Z,15.70
2022-11-27T04:06:52.772Z,14.80
2022-11-27T04:09:19.882Z,15.33
2022-11-27T04:11:46.979Z,14.93
2022-11-27T04:14:14.117Z,14.15
2022-11-27T04:16:41.325Z,14.03
2022-11-27T04:19:09.390Z,15.47
2022-11-27T04:21:36.518Z,19.47
2022-11-27T04:24:03.616Z,18.20
2022-11-27T04:26:30.729Z,14.70
2022-11-27T04:28:57.879Z,14.53
2022-11-27T04:31:25.041Z,11.27
2022-11-27T04:33:52.181Z,13.43
2022-11-27T04:36:19.313Z,11.90
2022-11-27T04:38:46.442Z,12.17
2022-11-27T04:41:13.539Z,11.40
2022-11-27T04:43:40.657Z,9.60
2022-11-27T04:46:07.811Z,8.73
2022-11-27T04:48:34.942Z,7.97
2022-11-27T04:51:02.082Z,8.37
2022-11-27T04:53:29.171Z,11.77
2022-11-27T04:55:56.296Z,13.87
2022-11-27T04:58:23.644Z,20.40
2022-11-27T05:00:50.808Z,14.80
2022-11-27T05:03:18.056Z,9.53
2022-11-27T05:05:45.273Z,9.03
2022-11-27T05:08:12.385Z,7.20
2022-11-27T05:10:39.556Z,8.87
2022-11-27T05:13:06.710Z,7.07
2022-11-27T05:15:33.818Z,8.17
2022-11-27T05:18:00.908Z,8.43
2022-11-27T05:20:28.090Z,10.10
2022-11-27T05:22:55.186Z,8.43
2022-11-27T05:25:22.280Z,9.30
2022-11-27T05:27:49.472Z,9.70
2022-11-27T05:30:16.647Z,6.07
2022-11-27T05:32:43.784Z,4.70
2022-11-27T05:35:10.916Z,5.17
2022-11-27T05:37:38.033Z,5.40
2022-11-27T05:40:05.376Z,5.47
2022-11-27T05:42:32.506Z,5.67
2022-11-27T05:44:59.588Z,5.23
2022-11-27T05:47:26.688Z,7.30
2022-11-27T05:49:54.301Z,7.07
2022-11-27T05:52:21.390Z,5.87
2022-11-27T05:54:48.487Z,5.80
2022-11-27T05:57:15.621Z,4.57
2022-11-27T05:59:42.731Z,4.50
2022-11-27T06:02:11.966Z,4.20
2022-11-27T06:04:42.482Z,5.20
2022-11-27T06:07:09.826Z,5.77
2022-11-27T06:09:39.803Z,8.53
2022-11-27T06:12:07.070Z,4.67
2022-11-27T06:14:35.128Z,7.77
2022-11-27T06:17:05.340Z,4.63
2022-11-27T06:19:32.486Z,9.87
2022-11-27T06:21:59.594Z,5.63
2022-11-27T06:24:26.806Z,6.40
2022-11-27T06:26:53.938Z,7.13
2022-11-27T06:29:21.101Z,7.80
2022-11-27T06:31:48.306Z,9.80
2022-11-27T06:34:15.495Z,10.97
2022-11-27T06:36:42.585Z,12.70
2022-11-27T06:39:10.803Z,9.83
2022-11-27T06:41:37.958Z,9.17
2022-11-27T06:44:05.155Z,8.83
2022-11-27T06:46:32.245Z,8.43
2022-11-27T06:48:59.562Z,8.73
2022-11-27T06:51:27.451Z,10.27
2022-11-27T06:53:54.577Z,13.00
2022-11-27T06:56:22.608Z,21.03
2022-11-27T06:58:53.076Z,12.53
2022-11-27T07:01:20.455Z,8.87
2022-11-27T07:03:47.624Z,8.83
2022-11-27T07:06:15.655Z,9.23
2022-11-27T07:08:43.288Z,12.23
2022-11-27T07:11:13.535Z,10.83
2022-11-27T07:13:40.735Z,12.70
2022-11-27T07:16:08.686Z,12.33
2022-11-27T07:18:36.729Z,11.00
2022-11-27T07:21:03.844Z,11.00
2022-11-27T07:23:31.061Z,10.23
2022-11-27T07:25:58.274Z,8.70
2022-11-27T07:28:25.503Z,9.23
2022-11-27T07:30:56.222Z,9.63
2022-11-27T07:33:23.610Z,13.27
2022-11-27T07:35:50.754Z,14.17
2022-11-27T07:38:17.851Z,13.80
2022-11-27T07:40:44.983Z,13.53
2022-11-27T07:43:12.103Z,13.47
2022-11-27T07:45:39.254Z,12.53
2022-11-27T07:48:06.495Z,11.53
2022-11-27T07:50:33.703Z,11.20
2022-11-27T07:53:00.811Z,9.87
2022-11-27T07:55:28.175Z,12.37
2022-11-27T07:57:55.257Z,12.43
2022-11-27T08:00:22.598Z,11.03
2022-11-27T08:02:49.807Z,10.43
2022-11-27T08:05:17.030Z,10.00
2022-11-27T08:07:44.214Z,11.73
2022-11-27T08:10:11.490Z,12.67
2022-11-27T08:12:38.590Z,15.40
2022-11-27T08:15:05.880Z,13.97
2022-11-27T08:17:33.009Z,13.13
2022-11-27T08:20:00.194Z,10.13
2022-11-27T08:22:27.331Z,9.00
2022-11-27T08:24:54.511Z,9.40
2022-11-27T08:27:21.636Z,9.57
2022-11-27T08:29:48.739Z,11.63
2022-11-27T08:32:15.868Z,11.13
2022-11-27T08:34:43.281Z,11.73
2022-11-27T08:37:10.545Z,9.83
2022-11-27T08:39:37.681Z,10.30
2022-11-27T08:42:04.788Z,10.37
2022-11-27T08:44:31.864Z,13.07
2022-11-27T08:46:59.009Z,12.50
2022-11-27T08:49:26.163Z,21.43
2022-11-27T08:51:53.258Z,27.47
2022-11-27T08:54:20.424Z,33.23
2022-11-27T08:56:47.551Z,26.13
2022-11-27T08:59:14.703Z,27.57
2022-11-27T09:01:41.829Z,26.87
2022-11-27T09:04:09.028Z,22.67
2022-11-27T09:06:36.348Z,22.70
2022-11-27T09:09:04.545Z,12.03
2022-11-27T09:11:32.031Z,12.90
2022-11-27T09:13:59.861Z,29.70
2022-11-27T09:16:28.128Z,19.27
2022-11-27T09:18:55.304Z,17.33
2022-11-27T09:21:23.037Z,18.30
2022-11-27T09:23:53.109Z,21.17
2022-11-27T09:26:20.236Z,19.90
2022-11-27T09:28:47.343Z,16.83
2022-11-27T09:31:15.029Z,14.97
2022-11-27T09:33:42.629Z,19.27
2022-11-27T09:36:10.571Z,16.80
2022-11-27T09:38:37.822Z,12.47
2022-11-27T09:41:14.184Z,15.37
2022-11-27T09:43:45.635Z,13.33
2022-11-27T09:46:17.542Z,13.00
2022-11-27T09:48:46.081Z,13.27
2022-11-27T09:51:20.157Z,14.88
2022-11-27T09:53:48.406Z,12.60
2022-11-27T09:56:17.116Z,12.00
2022-11-27T09:58:48.731Z,11.77
2022-11-27T10:01:19.711Z,10.10
2022-11-27T10:03:46.917Z,12.90
2022-11-27T10:06:28.128Z,12.00
2022-11-27T10:09:04.135Z,13.33
2022-11-27T10:11:39.681Z,22.97
2022-11-27T10:14:09.836Z,15.10
2022-11-27T10:16:49.939Z,14.93
2022-11-27T10:19:26.250Z,15.23
2022-11-27T10:21:56.008Z,18.90
2022-11-27T10:24:42.323Z,18.63
2022-11-27T10:27:18.833Z,14.87
2022-11-27T10:29:50.442Z,15.43
2022-11-27T10:32:52.941Z,19.37
2022-11-27T10:35:06.783Z,14.97
2022-11-27T10:37:43.010Z,12.73
2022-11-27T10:40:13.119Z,13.30
2022-11-27T10:42:40.214Z,13.70
2022-11-27T10:45:26.272Z,13.57
2022-11-27T10:47:53.349Z,13.03
2022-11-27T10:50:20.978Z,12.20
2022-11-27T10:52:54.080Z,14.83
2022-11-27T10:55:39.568Z,16.00
2022-11-27T10:58:24.914Z,24.57
2022-11-27T11:01:08.203Z,22.93
2022-11-27T11:03:35.400Z,22.00
2022-11-27T11:06:19.792Z,29.80
2022-11-27T11:08:48.328Z,49.53
2022-11-27T11:11:24.804Z,43.20
2022-11-27T11:13:51.943Z,35.63
2022-11-27T11:16:24.128Z,28.87
2022-11-27T11:18:52.467Z,27.73
2022-11-27T11:21:27.081Z,24.00
2022-11-27T11:23:58.457Z,25.87
2022-11-27T11:26:41.417Z,29.20
2022-11-27T11:29:17.573Z,29.33
2022-11-27T11:31:44.866Z,27.10
2022-11-27T11:34:19.669Z,28.37
2022-11-27T11:37:05.774Z,33.90
2022-11-27T11:39:34.251Z,37.80
2022-11-27T11:42:01.413Z,33.00
2022-11-27T11:44:36.775Z,26.92
2022-11-27T11:47:03.902Z,20.47
2022-11-27T11:49:31.711Z,23.73
2022-11-27T11:52:13.033Z,19.70
2022-11-27T11:54:40.520Z,15.87
2022-11-27T11:57:12.987Z,17.90
2022-11-27T11:59:45.268Z,18.20
2022-11-27T12:02:15.676Z,17.47
2022-11-27T12:05:03.893Z,14.20
2022-11-27T12:07:47.565Z,18.30
2022-11-27T12:10:20.090Z,17.05
2022-11-27T12:13:05.586Z,20.10
2022-11-27T12:15:32.722Z,21.75
2022-11-27T12:18:29.084Z,19.88
2022-11-27T12:21:19.299Z,15.57
2022-11-27T12:24:08.538Z,11.43
2022-11-27T12:26:42.793Z,9.57
2022-11-27T12:29:17.385Z,8.30
2022-11-27T12:31:56.775Z,7.40
2022-11-27T12:34:39.496Z,10.70
2022-11-27T12:37:29.948Z,9.77
2022-11-27T12:40:12.200Z,8.27
2022-11-27T12:42:49.452Z,9.82
2022-11-27T12:45:18.804Z,13.77
2022-11-27T12:47:50.159Z,21.37
2022-11-27T12:50:19.372Z,20.77
2022-11-27T12:53:11.506Z,27.88
2022-11-27T12:55:39.194Z,28.63
2022-11-27T12:58:17.150Z,28.40
2022-11-27T13:00:44.366Z,26.45
2022-11-27T13:03:25.914Z,27.80
2022-11-27T13:05:53.040Z,35.47
2022-11-27T13:08:25.057Z,39.15
2022-11-27T13:10:56.354Z,27.33
2022-11-27T13:13:23.480Z,35.17
2022-11-27T13:15:54.034Z,44.78
2022-11-27T13:18:31.553Z,33.47
2022-11-27T13:20:59.824Z,31.33
2022-11-27T13:23:26.901Z,38.50
2022-11-27T13:25:55.076Z,52.97
2022-11-27T13:28:42.469Z,48.00
2022-11-27T13:31:09.744Z,47.93
2022-11-27T13:33:38.316Z,43.10
2022-11-27T13:36:07.081Z,42.20
2022-11-27T13:38:36.477Z,42.10
2022-11-27T13:41:06.145Z,38.95
2022-11-27T13:43:42.752Z,41.35
2022-11-27T13:46:11.980Z,33.47
2022-11-27T13:48:39.903Z,45.00
2022-11-27T13:51:07.281Z,42.17
2022-11-27T13:53:34.383Z,43.20
2022-11-27T13:56:01.555Z,45.10
2022-11-27T13:58:32.812Z,41.97
2022-11-27T14:01:00.293Z,36.67
2022-11-27T14:03:28.561Z,43.53
2022-11-27T14:05:55.812Z,41.27
2022-11-27T14:08:26.655Z,46.33
2022-11-27T14:10:56.803Z,44.67
2022-11-27T14:13:27.548Z,45.47
2022-11-27T14:16:01.789Z,55.80
2022-11-27T14:18:29.173Z,51.97
2022-11-27T14:21:03.227Z,49.17
2022-11-27T14:23:34.394Z,54.35
2022-11-27T14:26:02.199Z,43.37
2022-11-27T14:28:30.476Z,40.65
2022-11-27T14:31:00.918Z,35.03
2022-11-27T14:33:29.372Z,29.50
2022-11-27T14:35:58.776Z,65.17
2022-11-27T14:38:26.847Z,76.20
2022-11-27T14:40:54.062Z,61.90
2022-11-27T14:43:28.200Z,48.85
2022-11-27T14:45:58.802Z,54.07
2022-11-27T14:48:26.500Z,37.27
2022-11-27T14:50:54.376Z,31.98
2022-11-27T14:53:21.783Z,27.43
2022-11-27T14:55:49.540Z,34.93
2022-11-27T14:58:18.852Z,35.93
2022-11-27T15:00:59.752Z,31.73
2022-11-27T15:03:27.173Z,24.73
2022-11-27T15:05:55.833Z,22.93
2022-11-27T15:08:23.052Z,34.80
2022-11-27T15:10:50.261Z,48.38
2022-11-27T15:13:24.643Z,53.20
2022-11-27T15:15:56.093Z,49.03
2022-11-27T15:18:23.284Z,47.77
2022-11-27T15:20:50.436Z,36.60
2022-11-27T15:23:17.535Z,33.30
2022-11-27T15:25:45.603Z,34.00
2022-11-27T15:28:24.768Z,31.30
2022-11-27T15:30:51.957Z,29.33
2022-11-27T15:33:28.643Z,30.95
2022-11-27T15:36:13.883Z,33.20
2022-11-27T15:38:41.621Z,35.87
2022-11-27T15:41:30.118Z,38.20
2022-11-27T15:43:57.395Z,33.13
2022-11-27T15:46:25.702Z,30.30
2022-11-27T15:48:52.984Z,28.70
2022-11-27T15:51:20.156Z,33.20
2022-11-27T15:53:48.527Z,34.53
2022-11-27T15:56:16.158Z,35.03
2022-11-27T15:58:43.339Z,30.77
2022-11-27T16:01:10.671Z,32.07
2022-11-27T16:03:39.805Z,34.10
2022-11-27T16:06:07.479Z,33.20
2022-11-27T16:08:34.590Z,40.60
2022-11-27T16:11:02.402Z,38.97
2022-11-27T16:13:29.828Z,45.05
2022-11-27T16:16:01.379Z,44.28
2022-11-27T16:18:28.487Z,45.87
2022-11-27T16:20:55.615Z,43.70
2022-11-27T16:23:23.785Z,43.70
2022-11-27T16:25:50.886Z,49.17
2022-11-27T16:28:18.024Z,46.72
2022-11-27T16:30:45.127Z,63.87
2022-11-27T16:33:12.244Z,69.10
2022-11-27T16:35:39.350Z,61.43
2022-11-27T16:38:06.495Z,59.47
2022-11-27T16:40:34.819Z,55.63
2022-11-27T16:43:01.967Z,52.27
2022-11-27T16:45:29.082Z,51.78
2022-11-27T16:47:56.261Z,50.17
2022-11-27T16:50:24.008Z,56.33
2022-11-27T16:52:54.275Z,65.77
2022-11-27T16:55:21.910Z,68.23
2022-11-27T16:57:49.022Z,76.47
2022-11-27T17:00:16.517Z,72.70
2022-11-27T17:02:43.678Z,74.60
2022-11-27T17:05:10.868Z,87.33
2022-11-27T17:07:38.057Z,90.87
2022-11-27T17:10:05.424Z,84.37
2022-11-27T17:12:33.444Z,80.13
2022-11-27T17:15:00.574Z,76.47
2022-11-27T17:17:27.733Z,83.17
2022-11-27T17:20:00.376Z,90.97
2022-11-27T17:22:28.426Z,101.33
2022-11-27T17:24:57.701Z,91.37
2022-11-27T17:27:24.839Z,89.87
2022-11-27T17:29:51.975Z,85.40
2022-11-27T17:32:19.064Z,88.50
2022-11-27T17:34:46.190Z,101.10
2022-11-27T17:37:13.430Z,96.67
2022-11-27T17:39:41.266Z,107.60
2022-11-27T17:42:12.921Z,107.90
2022-11-27T17:44:41.632Z,98.40
2022-11-27T17:47:08.776Z,95.43
2022-11-27T17:49:35.870Z,102.80
2022-11-27T17:52:06.315Z,100.43
2022-11-27T17:54:33.897Z,101.83
2022-11-27T17:57:00.998Z,103.60
2022-11-27T17:59:28.163Z,94.80
2022-11-27T18:01:55.391Z,92.60
2022-11-27T18:04:23.109Z,119.70
2022-11-27T18:06:50.297Z,103.17
2022-11-27T18:09:17.512Z,108.07
2022-11-27T18:11:44.629Z,106.30
2022-11-27T18:14:13.478Z,113.60
2022-11-27T18:16:41.159Z,118.00
2022-11-27T18:19:09.034Z,115.07
2022-11-27T18:21:36.419Z,108.57
2022-11-27T18:29:38.332Z,66.53
2022-11-27T18:32:05.734Z,73.53
2022-11-27T18:34:34.185Z,78.70
2022-11-27T18:37:01.354Z,82.73
2022-11-27T18:39:28.596Z,80.80
2022-11-27T18:41:55.680Z,66.77
2022-11-27T18:44:22.807Z,78.93
2022-11-27T18:46:50.651Z,87.80
2022-11-27T18:49:17.846Z,82.90
2022-11-27T18:51:45.083Z,83.07
2022-11-27T18:54:12.200Z,77.17
2022-11-27T18:56:39.298Z,73.87
2022-11-27T18:59:06.975Z,81.60
2022-11-27T19:01:39.917Z,81.67
2022-11-27T19:04:08.359Z,60.80
2022-11-27T19:06:35.664Z,62.83
2022-11-27T19:09:02.783Z,66.03
2022-11-27T19:11:30.907Z,74.87
2022-11-27T19:13:58.119Z,60.53
2022-11-27T19:16:29.444Z,55.33
2022-11-27T19:18:56.988Z,57.03
2022-11-27T19:21:24.891Z,55.87
2022-11-27T19:23:52.088Z,82.77
2022-11-27T19:26:20.047Z,86.77
2022-11-27T19:28:50.635Z,84.83
2022-11-27T19:31:18.056Z,77.63
2022-11-27T19:33:45.275Z,82.03
2022-11-27T19:36:13.067Z,83.83
2022-11-27T19:38:41.916Z,77.57
2022-11-27T19:41:10.079Z,75.20
2022-11-27T19:43:37.169Z,77.77
2022-11-27T19:46:12.659Z,79.67
2022-11-27T19:48:39.852Z,75.90
2022-11-27T19:51:06.944Z,73.57
2022-11-27T19:53:34.466Z,69.37
2022-11-27T19:56:01.633Z,71.23
2022-11-27T19:58:28.720Z,72.93
2022-11-27T20:00:55.936Z,77.93
2022-11-27T20:03:23.071Z,77.40
2022-11-27T20:05:50.166Z,86.80
2022-11-27T20:08:17.360Z,94.00
2022-11-27T20:10:49.328Z,84.10
2022-11-27T20:13:16.442Z,92.80
2022-11-27T20:15:43.593Z,102.87
2022-11-27T20:18:10.710Z,88.33
2022-11-27T20:20:37.796Z,85.33
2022-11-27T20:23:04.928Z,86.77
2022-11-27T20:25:32.059Z,90.20
2022-11-27T20:27:59.162Z,99.07
2022-11-27T20:30:26.306Z,93.63
2022-11-27T20:32:54.620Z,97.47
2022-11-27T20:35:21.753Z,88.37
2022-11-27T20:37:48.877Z,86.37
2022-11-27T20:40:16.074Z,84.80
2022-11-27T20:42:43.247Z,76.07
2022-11-27T20:45:10.619Z,74.00
2022-11-27T20:47:37.776Z,82.03
2022-11-27T20:50:05.627Z,80.03
2022-11-27T20:52:32.737Z,80.50
2022-11-27T20:54:59.901Z,80.20
2022-11-27T20:57:27.062Z,86.83
2022-11-27T20:59:55.430Z,88.17
2022-11-27T21:02:22.577Z,90.13
2022-11-27T21:04:49.710Z,93.27
2022-11-27T21:07:16.940Z,73.10
2022-11-27T21:09:44.250Z,71.30
2022-11-27T21:12:13.176Z,67.93
2022-11-27T21:14:40.435Z,58.83
2022-11-27T21:17:08.429Z,54.63
2022-11-27T21:19:35.596Z,54.40
2022-11-27T21:22:02.753Z,48.00
2022-11-27T21:24:29.873Z,45.83
2022-11-27T21:26:57.151Z,41.77
2022-11-27T21:29:27.408Z,42.30
2022-11-27T21:31:55.318Z,41.07
2022-11-27T21:34:22.695Z,38.60
2022-11-27T21:36:49.867Z,44.13
2022-11-27T21:39:20.638Z,40.00
2022-11-27T21:41:48.616Z,33.07
2022-11-27T21:44:17.768Z,29.77
2022-11-27T21:46:45.646Z,29.20
2022-11-27T21:49:13.128Z,28.17
2022-11-27T21:51:40.368Z,24.60
2022-11-27T21:54:08.173Z,23.97
2022-11-27T21:56:37.709Z,22.67
2022-11-27T21:59:05.389Z,20.67
2022-11-27T22:01:32.591Z,21.10
2022-11-27T22:03:59.780Z,20.60
2022-11-27T22:06:28.410Z,19.77
2022-11-27T22:08:57.458Z,20.97
2022-11-27T22:11:26.781Z,23.07
2022-11-27T22:14:00.918Z,23.07
2022-11-27T22:16:29.166Z,28.00
2022-11-27T22:18:56.924Z,26.67
2022-11-27T22:21:24.234Z,26.17
2022-11-27T22:23:51.506Z,29.20
2022-11-27T22:26:19.230Z,29.00
2022-11-27T22:28:46.567Z,26.33
2022-11-27T22:31:13.738Z,30.07
2022-11-27T22:33:41.342Z,31.07
2022-11-27T22:36:12.658Z,31.20
2022-11-27T22:38:40.364Z,31.37
2022-11-27T22:41:07.570Z,35.63
2022-11-27T22:43:35.430Z,33.63
2022-11-27T22:46:06.451Z,32.33
2022-11-27T22:48:33.583Z,34.50
2022-11-27T22:51:00.741Z,37.77
2022-11-27T22:53:27.880Z,49.93
2022-11-27T22:55:55.007Z,90.47
2022-11-27T22:58:22.252Z,37.47
2022-11-27T23:00:56.122Z,31.10
2022-11-27T23:03:23.272Z,33.87
2022-11-27T23:05:50.792Z,33.47
2022-11-27T23:08:18.949Z,34.60
2022-11-27T23:10:46.891Z,34.57
2022-11-27T23:13:14.434Z,29.57
2022-11-27T23:15:41.729Z,28.87
2022-11-27T23:18:08.977Z,27.17
2022-11-27T23:20:36.153Z,26.33
2022-11-27T23:23:03.271Z,25.77
2022-11-27T23:25:31.002Z,25.70
2022-11-27T23:27:58.088Z,24.77
2022-11-27T23:30:25.200Z,34.17
2022-11-27T23:32:52.342Z,36.53
2022-11-27T23:35:19.464Z,33.33
2022-11-27T23:37:46.558Z,33.80
2022-11-27T23:40:13.791Z,35.03
2022-11-27T23:42:40.963Z,33.53
2022-11-27T23:45:08.336Z,31.67
2022-11-27T23:47:35.584Z,32.07
2022-11-27T23:50:02.681Z,29.77
2022-11-27T23:52:29.777Z,35.67
2022-11-27T23:54:56.930Z,37.13
2022-11-27T23:57:24.024Z,37.43
2022-11-27T23:59:51.131Z,37.17
